Terminal Aerodrome Forecast
Issued by NWS

Home | Current Version | Previous Version | Graphics & Text | Print | Product List | Glossary On
Versions: 1 2 3 4 5 6 7 8 9 10 11 12 13 14 15 16 17 18 19 20 21 22
000
FTUS43 KGRB 310815 AAA
TAFMTW
TAF AMD
KMTW 310815Z 3108/0106 VRB03KT 1SM BR SCT002
      TEMPO 3109/3113 1/4SM FG BKN002
     FM311400 22005KT 5SM BR FEW005 BKN012
     FM311600 21007KT P6SM SCT015 SCT250
     FM311900 19005KT P6SM BKN250=

USA.gov is the U.S. government's official web portal to all federal, state and local government web resources and services.